Página principal
METAR-TAF:

METAR-TAF

Aeroportos :

Duchambe, Tadjiquistão

latitude: 38-33N, longitude: 068-47E, altura: 803 m

Observação actual do tempo

O boletim foi feito há 11 minutos, às 08:00 UTC
Vento 4 kt com direcção variável
Temperatura 33°C
Humidade 15%
Pressão 1013 hPa
Visibilidade 10 km ou mais
Poucas nuvensa uma altura de 6600 ft

METAR: UTDD 210800Z VRB02MPS 9999 FEW066 33/03 Q1013 R09/CLRD// NOSIG RMK QFE691/0922

Hora: 13:11 (08:11 UTC)

Previsão

O boletim foi feito há 2 horas e 11 minutos, às 06:00 UTC
Previsão válida de 21 às 07 UTC a 21 às 19 UTC
Vento 4 kt com direcção variável
Visibilidade: 6000 m
Poucas nuvensa uma altura de 6600 ft, Cumulonimbus.
Nuvens dispersasa uma altura de 12000 ft
Temporariamente
de 21 às 07 UTC a 21 às 19 UTC
Vento 16 kt de oeste

TAF: UTDD 210600Z 2107/2119 VRB02MPS 6000 FEW066CB SCT120 TEMPO 2107/2119 27008MPS

Observações e previsões do tempo de mais de 4000 aeroportos (mensagens METAR e TAF).

As estações disponíveis são os pontos amarelos e vermelhos sobre o mapa.

Mova o rato sobre o mapa para ver o nome da estação.

Depois clique no ponto para visualizar as observações e previsões meteorológicas.

Para alterar o mapa : clique nos botões verdes com uma cruz preta para aumentar o zoom; no botão verde com uma pitada de zoom; ou nas setas verdes para mapas adjacentes.


METAR-TAF: